Карточка аэропорта UAKK

Внимание!
Информация на этой странице в стадии наполнения.
Если вы не увидели какой-то информации, или заметили неточность - пожалуйста сообщите нам!
Спасибо!
Команда RU-STAFF
Название аэропортаКараганда
Название аэропорта (англ.)Karaganda
Превышение1768 ft. (538.9 m.)
Координаты49°40.302', 73°20.118'
Высота перехода10000ft
Эшелон переходаFL120, QNH<733:FL130
Коды ответчика0630-0637, 7220-7227
Зона ОрВДАстана РПИ (UACN)
Данные METARUAKK 251130Z 27006MPS CAVOK 28/05 Q1007 NOSIG RMK QFE709/0945
Проноз погоды (TAF)UAKK 251100Z 2512/2612 25007MPS 9999 SCT040 BKN100 TX28/2512Z TN15/2601Z TEMPO 2512/2514 28010MPS SCT030CB BECMG 2514/2516 27010MPS PROB40 TEMPO 2514/2518 TS BKN030CB TEMPO 2518/2602 10007MPS 5000 -SHRA BKN030CB
NOTAMshow/hide NOTAM
AWOS   TABLE

Информация о ВПП

ВПП Длина ВПП (м.) Покрытие Курс ВПП Частота ILS
053601Железобетон50109.9
233601Железобетон230111.7

Диспетчерские позиции




Спутниковое изображение